sensor_id;sensor_type;location;lat;lon;timestamp;P1;durP1;ratioP1;P2;durP2;ratioP2
65717;SDS011;52445;52.466;-1.016;2023-04-30T00:00:45;11.32;;;5.20;;
65717;SDS011;52445;52.466;-1.016;2023-04-30T00:03:11;12.27;;;6.65;;
65717;SDS011;52445;52.466;-1.016;2023-04-30T00:05:38;12.25;;;5.80;;
65717;SDS011;52445;52.466;-1.016;2023-04-30T00:08:04;15.65;;;6.75;;
65717;SDS011;52445;52.466;-1.016;2023-04-30T00:10:31;11.45;;;5.35;;
65717;SDS011;52445;52.466;-1.016;2023-04-30T00:12:58;13.55;;;6.80;;
65717;SDS011;52445;52.466;-1.016;2023-04-30T00:15:24;11.60;;;6.13;;
65717;SDS011;52445;52.466;-1.016;2023-04-30T00:17:51;12.85;;;5.68;;
65717;SDS011;52445;52.466;-1.016;2023-04-30T00:20:18;13.75;;;6.25;;
65717;SDS011;52445;52.466;-1.016;2023-04-30T00:22:45;12.00;;;4.32;;
65717;SDS011;52445;52.466;-1.016;2023-04-30T00:25:11;14.50;;;6.28;;
65717;SDS011;52445;52.466;-1.016;2023-04-30T00:27:38;12.93;;;6.72;;
65717;SDS011;52445;52.466;-1.016;2023-04-30T00:30:06;17.30;;;6.63;;
65717;SDS011;52445;52.466;-1.016;2023-04-30T00:32:33;13.13;;;5.82;;
65717;SDS011;52445;52.466;-1.016;2023-04-30T00:34:59;14.38;;;6.70;;
65717;SDS011;52445;52.466;-1.016;2023-04-30T00:37:26;11.80;;;6.25;;
65717;SDS011;52445;52.466;-1.016;2023-04-30T00:39:53;14.18;;;6.90;;
65717;SDS011;52445;52.466;-1.016;2023-04-30T00:42:20;15.20;;;6.40;;
65717;SDS011;52445;52.466;-1.016;2023-04-30T00:44:47;14.65;;;6.03;;
65717;SDS011;52445;52.466;-1.016;2023-04-30T00:47:13;15.50;;;6.15;;
65717;SDS011;52445;52.466;-1.016;2023-04-30T00:49:40;12.48;;;6.50;;
65717;SDS011;52445;52.466;-1.016;2023-04-30T00:52:07;14.00;;;6.50;;
65717;SDS011;52445;52.466;-1.016;2023-04-30T00:54:34;17.35;;;7.18;;
65717;SDS011;52445;52.466;-1.016;2023-04-30T00:57:01;13.70;;;6.68;;
65717;SDS011;52445;52.466;-1.016;2023-04-30T00:59:30;16.20;;;7.60;;
65717;SDS011;52445;52.466;-1.016;2023-04-30T01:01:58;16.42;;;7.25;;
65717;SDS011;52445;52.466;-1.016;2023-04-30T01:04:24;11.85;;;6.68;;
65717;SDS011;52445;52.466;-1.016;2023-04-30T01:06:52;16.48;;;7.65;;
65717;SDS011;52445;52.466;-1.016;2023-04-30T01:09:19;12.93;;;6.35;;
65717;SDS011;52445;52.466;-1.016;2023-04-30T01:11:48;13.40;;;6.35;;
65717;SDS011;52445;52.466;-1.016;2023-04-30T01:14:36;20.90;;;10.75;;
65717;SDS011;52445;52.466;-1.016;2023-04-30T01:17:24;17.85;;;6.75;;
65717;SDS011;52445;52.466;-1.016;2023-04-30T01:20:11;15.43;;;7.13;;
65717;SDS011;52445;52.466;-1.016;2023-04-30T01:22:55;16.35;;;7.20;;
65717;SDS011;52445;52.466;-1.016;2023-04-30T01:28:15;19.50;;;7.97;;
65717;SDS011;52445;52.466;-1.016;2023-04-30T01:30:45;21.90;;;8.07;;
65717;SDS011;52445;52.466;-1.016;2023-04-30T01:33:12;14.45;;;6.90;;
65717;SDS011;52445;52.466;-1.016;2023-04-30T01:41:09;19.05;;;9.55;;
65717;SDS011;52445;52.466;-1.016;2023-04-30T01:46:52;19.88;;;8.82;;
65717;SDS011;52445;52.466;-1.016;2023-04-30T01:52:08;21.73;;;9.00;;
65717;SDS011;52445;52.466;-1.016;2023-04-30T01:57:15;21.85;;;8.00;;
65717;SDS011;52445;52.466;-1.016;2023-04-30T01:59:53;20.23;;;9.18;;
65717;SDS011;52445;52.466;-1.016;2023-04-30T02:02:20;18.48;;;8.57;;
65717;SDS011;52445;52.466;-1.016;2023-04-30T02:04:47;20.45;;;8.10;;
65717;SDS011;52445;52.466;-1.016;2023-04-30T02:07:16;19.65;;;7.78;;
65717;SDS011;52445;52.466;-1.016;2023-04-30T02:09:54;22.33;;;8.10;;
65717;SDS011;52445;52.466;-1.016;2023-04-30T02:12:21;22.17;;;9.10;;
65717;SDS011;52445;52.466;-1.016;2023-04-30T02:14:48;20.75;;;9.27;;
65717;SDS011;52445;52.466;-1.016;2023-04-30T02:17:14;21.73;;;8.23;;
65717;SDS011;52445;52.466;-1.016;2023-04-30T02:19:41;19.25;;;7.55;;
65717;SDS011;52445;52.466;-1.016;2023-04-30T02:22:07;17.55;;;7.45;;
65717;SDS011;52445;52.466;-1.016;2023-04-30T02:24:35;22.33;;;8.60;;
65717;SDS011;52445;52.466;-1.016;2023-04-30T02:27:01;24.52;;;9.93;;
65717;SDS011;52445;52.466;-1.016;2023-04-30T02:29:28;24.20;;;9.63;;
65717;SDS011;52445;52.466;-1.016;2023-04-30T02:31:57;18.83;;;9.00;;
65717;SDS011;52445;52.466;-1.016;2023-04-30T02:34:24;22.05;;;9.13;;
65717;SDS011;52445;52.466;-1.016;2023-04-30T02:36:51;20.83;;;9.52;;
65717;SDS011;52445;52.466;-1.016;2023-04-30T02:39:17;19.50;;;8.90;;
65717;SDS011;52445;52.466;-1.016;2023-04-30T02:41:44;22.75;;;9.52;;
65717;SDS011;52445;52.466;-1.016;2023-04-30T02:44:10;23.10;;;9.18;;
65717;SDS011;52445;52.466;-1.016;2023-04-30T02:46:37;20.63;;;9.60;;
65717;SDS011;52445;52.466;-1.016;2023-04-30T02:49:04;26.95;;;10.68;;
65717;SDS011;52445;52.466;-1.016;2023-04-30T02:51:30;24.23;;;11.20;;
65717;SDS011;52445;52.466;-1.016;2023-04-30T02:53:57;27.00;;;11.63;;
65717;SDS011;52445;52.466;-1.016;2023-04-30T02:56:24;25.65;;;9.88;;
65717;SDS011;52445;52.466;-1.016;2023-04-30T02:58:51;26.23;;;11.13;;
65717;SDS011;52445;52.466;-1.016;2023-04-30T03:01:17;23.67;;;9.25;;
65717;SDS011;52445;52.466;-1.016;2023-04-30T03:03:44;26.35;;;10.07;;
65717;SDS011;52445;52.466;-1.016;2023-04-30T03:06:11;24.50;;;10.65;;
65717;SDS011;52445;52.466;-1.016;2023-04-30T03:08:37;24.75;;;10.02;;
65717;SDS011;52445;52.466;-1.016;2023-04-30T03:11:04;22.90;;;10.40;;
65717;SDS011;52445;52.466;-1.016;2023-04-30T03:13:31;26.38;;;10.68;;
65717;SDS011;52445;52.466;-1.016;2023-04-30T03:15:58;23.75;;;9.45;;
65717;SDS011;52445;52.466;-1.016;2023-04-30T03:18:26;21.02;;;9.05;;
65717;SDS011;52445;52.466;-1.016;2023-04-30T03:20:53;25.45;;;10.52;;
65717;SDS011;52445;52.466;-1.016;2023-04-30T03:23:20;27.38;;;10.45;;
65717;SDS011;52445;52.466;-1.016;2023-04-30T03:25:47;26.05;;;10.52;;
65717;SDS011;52445;52.466;-1.016;2023-04-30T03:28:14;22.60;;;9.80;;
65717;SDS011;52445;52.466;-1.016;2023-04-30T03:30:41;25.83;;;9.50;;
65717;SDS011;52445;52.466;-1.016;2023-04-30T03:33:07;21.48;;;9.32;;
65717;SDS011;52445;52.466;-1.016;2023-04-30T03:35:34;27.02;;;11.48;;
65717;SDS011;52445;52.466;-1.016;2023-04-30T03:38:01;24.30;;;10.73;;
65717;SDS011;52445;52.466;-1.016;2023-04-30T03:40:27;24.00;;;10.45;;
65717;SDS011;52445;52.466;-1.016;2023-04-30T03:42:54;22.88;;;9.35;;
65717;SDS011;52445;52.466;-1.016;2023-04-30T03:45:20;22.33;;;10.60;;
65717;SDS011;52445;52.466;-1.016;2023-04-30T03:47:48;24.23;;;10.38;;
65717;SDS011;52445;52.466;-1.016;2023-04-30T03:50:16;21.17;;;9.02;;
65717;SDS011;52445;52.466;-1.016;2023-04-30T03:52:44;22.83;;;9.15;;
65717;SDS011;52445;52.466;-1.016;2023-04-30T03:55:11;22.52;;;9.73;;
65717;SDS011;52445;52.466;-1.016;2023-04-30T03:57:38;26.10;;;9.32;;
65717;SDS011;52445;52.466;-1.016;2023-04-30T04:00:07;21.63;;;10.05;;
65717;SDS011;52445;52.466;-1.016;2023-04-30T04:02:35;22.25;;;8.98;;
65717;SDS011;52445;52.466;-1.016;2023-04-30T04:05:02;16.95;;;8.52;;
65717;SDS011;52445;52.466;-1.016;2023-04-30T04:07:29;18.88;;;8.88;;
65717;SDS011;52445;52.466;-1.016;2023-04-30T04:09:56;22.70;;;9.07;;
65717;SDS011;52445;52.466;-1.016;2023-04-30T04:12:23;24.23;;;9.65;;
65717;SDS011;52445;52.466;-1.016;2023-04-30T04:14:50;20.85;;;8.25;;
65717;SDS011;52445;52.466;-1.016;2023-04-30T04:17:16;18.08;;;8.20;;
65717;SDS011;52445;52.466;-1.016;2023-04-30T04:19:43;18.25;;;7.55;;
65717;SDS011;52445;52.466;-1.016;2023-04-30T04:22:09;23.23;;;9.32;;
65717;SDS011;52445;52.466;-1.016;2023-04-30T04:24:36;20.55;;;8.90;;
65717;SDS011;52445;52.466;-1.016;2023-04-30T04:27:03;20.42;;;9.45;;
65717;SDS011;52445;52.466;-1.016;2023-04-30T04:29:30;19.67;;;8.98;;
65717;SDS011;52445;52.466;-1.016;2023-04-30T04:31:57;23.45;;;9.15;;
65717;SDS011;52445;52.466;-1.016;2023-04-30T04:34:25;21.27;;;8.43;;
65717;SDS011;52445;52.466;-1.016;2023-04-30T04:36:52;23.42;;;9.07;;
65717;SDS011;52445;52.466;-1.016;2023-04-30T04:39:19;19.20;;;8.13;;
65717;SDS011;52445;52.466;-1.016;2023-04-30T04:41:45;18.83;;;8.93;;
65717;SDS011;52445;52.466;-1.016;2023-04-30T04:44:12;24.55;;;9.82;;
65717;SDS011;52445;52.466;-1.016;2023-04-30T04:46:38;26.92;;;10.07;;
65717;SDS011;52445;52.466;-1.016;2023-04-30T04:49:07;23.33;;;10.45;;
65717;SDS011;52445;52.466;-1.016;2023-04-30T04:51:34;22.92;;;9.95;;
65717;SDS011;52445;52.466;-1.016;2023-04-30T04:54:01;24.00;;;10.63;;
65717;SDS011;52445;52.466;-1.016;2023-04-30T04:56:27;27.25;;;9.60;;
65717;SDS011;52445;52.466;-1.016;2023-04-30T04:58:54;28.13;;;10.98;;
65717;SDS011;52445;52.466;-1.016;2023-04-30T05:01:21;26.52;;;9.52;;
65717;SDS011;52445;52.466;-1.016;2023-04-30T05:03:47;27.17;;;11.43;;
65717;SDS011;52445;52.466;-1.016;2023-04-30T05:06:16;25.10;;;11.15;;
65717;SDS011;52445;52.466;-1.016;2023-04-30T05:08:42;25.85;;;10.20;;
65717;SDS011;52445;52.466;-1.016;2023-04-30T05:11:09;22.65;;;10.02;;
65717;SDS011;52445;52.466;-1.016;2023-04-30T05:13:40;25.65;;;8.75;;
65717;SDS011;52445;52.466;-1.016;2023-04-30T05:16:07;26.75;;;11.18;;
65717;SDS011;52445;52.466;-1.016;2023-04-30T05:18:33;16.85;;;7.63;;
65717;SDS011;52445;52.466;-1.016;2023-04-30T05:21:00;18.33;;;8.13;;
65717;SDS011;52445;52.466;-1.016;2023-04-30T05:23:27;22.02;;;8.88;;
65717;SDS011;52445;52.466;-1.016;2023-04-30T05:25:53;20.13;;;9.57;;
65717;SDS011;52445;52.466;-1.016;2023-04-30T05:28:20;22.65;;;9.43;;
65717;SDS011;52445;52.466;-1.016;2023-04-30T05:30:47;25.30;;;10.13;;
65717;SDS011;52445;52.466;-1.016;2023-04-30T05:33:13;27.42;;;10.32;;
65717;SDS011;52445;52.466;-1.016;2023-04-30T05:35:40;24.05;;;9.45;;
65717;SDS011;52445;52.466;-1.016;2023-04-30T05:38:07;26.83;;;9.23;;
65717;SDS011;52445;52.466;-1.016;2023-04-30T05:40:34;25.30;;;9.25;;
65717;SDS011;52445;52.466;-1.016;2023-04-30T05:43:01;23.38;;;10.00;;
65717;SDS011;52445;52.466;-1.016;2023-04-30T05:45:27;21.98;;;8.68;;
65717;SDS011;52445;52.466;-1.016;2023-04-30T05:47:54;17.58;;;7.53;;
65717;SDS011;52445;52.466;-1.016;2023-04-30T05:50:21;22.30;;;10.63;;
65717;SDS011;52445;52.466;-1.016;2023-04-30T05:52:48;20.15;;;8.80;;
65717;SDS011;52445;52.466;-1.016;2023-04-30T05:55:14;21.85;;;9.48;;
65717;SDS011;52445;52.466;-1.016;2023-04-30T05:57:41;24.63;;;9.63;;
65717;SDS011;52445;52.466;-1.016;2023-04-30T06:00:07;21.45;;;9.75;;
65717;SDS011;52445;52.466;-1.016;2023-04-30T06:02:34;29.27;;;10.43;;
65717;SDS011;52445;52.466;-1.016;2023-04-30T06:05:01;23.70;;;9.65;;
65717;SDS011;52445;52.466;-1.016;2023-04-30T06:07:28;23.42;;;9.57;;
65717;SDS011;52445;52.466;-1.016;2023-04-30T06:09:55;25.88;;;11.35;;
65717;SDS011;52445;52.466;-1.016;2023-04-30T06:12:22;23.42;;;8.65;;
65717;SDS011;52445;52.466;-1.016;2023-04-30T06:14:50;18.95;;;7.95;;
65717;SDS011;52445;52.466;-1.016;2023-04-30T06:17:17;21.13;;;9.73;;
65717;SDS011;52445;52.466;-1.016;2023-04-30T06:19:44;21.33;;;9.40;;
65717;SDS011;52445;52.466;-1.016;2023-04-30T06:22:11;24.45;;;9.68;;
65717;SDS011;52445;52.466;-1.016;2023-04-30T06:24:38;23.52;;;8.35;;
65717;SDS011;52445;52.466;-1.016;2023-04-30T06:27:04;22.17;;;10.32;;
65717;SDS011;52445;52.466;-1.016;2023-04-30T06:29:31;21.30;;;8.57;;
65717;SDS011;52445;52.466;-1.016;2023-04-30T06:31:58;21.20;;;9.10;;
65717;SDS011;52445;52.466;-1.016;2023-04-30T06:34:24;22.55;;;9.27;;
65717;SDS011;52445;52.466;-1.016;2023-04-30T06:36:51;22.00;;;9.55;;
65717;SDS011;52445;52.466;-1.016;2023-04-30T06:39:18;23.83;;;9.02;;
65717;SDS011;52445;52.466;-1.016;2023-04-30T06:41:45;21.55;;;8.52;;
65717;SDS011;52445;52.466;-1.016;2023-04-30T06:44:12;23.25;;;9.07;;
65717;SDS011;52445;52.466;-1.016;2023-04-30T06:46:39;25.10;;;9.40;;
65717;SDS011;52445;52.466;-1.016;2023-04-30T06:49:06;24.73;;;9.88;;
65717;SDS011;52445;52.466;-1.016;2023-04-30T06:51:33;21.35;;;8.73;;
65717;SDS011;52445;52.466;-1.016;2023-04-30T06:53:59;21.65;;;8.88;;
65717;SDS011;52445;52.466;-1.016;2023-04-30T06:56:26;21.60;;;10.25;;
65717;SDS011;52445;52.466;-1.016;2023-04-30T06:58:53;21.00;;;8.52;;
65717;SDS011;52445;52.466;-1.016;2023-04-30T07:01:19;30.63;;;11.63;;
65717;SDS011;52445;52.466;-1.016;2023-04-30T07:03:46;24.98;;;10.95;;
65717;SDS011;52445;52.466;-1.016;2023-04-30T07:06:13;21.58;;;10.25;;
65717;SDS011;52445;52.466;-1.016;2023-04-30T07:08:39;24.20;;;10.25;;
65717;SDS011;52445;52.466;-1.016;2023-04-30T07:11:06;31.63;;;11.80;;
65717;SDS011;52445;52.466;-1.016;2023-04-30T07:13:33;23.58;;;9.85;;
65717;SDS011;52445;52.466;-1.016;2023-04-30T07:15:59;20.42;;;10.55;;
65717;SDS011;52445;52.466;-1.016;2023-04-30T07:18:26;18.35;;;8.38;;
65717;SDS011;52445;52.466;-1.016;2023-04-30T07:20:53;27.55;;;10.90;;
65717;SDS011;52445;52.466;-1.016;2023-04-30T07:23:20;21.00;;;8.82;;
65717;SDS011;52445;52.466;-1.016;2023-04-30T07:25:47;23.15;;;9.50;;
65717;SDS011;52445;52.466;-1.016;2023-04-30T07:28:14;25.38;;;10.70;;
65717;SDS011;52445;52.466;-1.016;2023-04-30T07:30:40;21.58;;;9.77;;
65717;SDS011;52445;52.466;-1.016;2023-04-30T07:33:07;26.40;;;10.65;;
65717;SDS011;52445;52.466;-1.016;2023-04-30T07:35:34;19.98;;;9.05;;
65717;SDS011;52445;52.466;-1.016;2023-04-30T07:38:01;23.30;;;10.43;;
65717;SDS011;52445;52.466;-1.016;2023-04-30T07:40:30;28.30;;;12.02;;
65717;SDS011;52445;52.466;-1.016;2023-04-30T07:43:02;27.63;;;11.73;;
65717;SDS011;52445;52.466;-1.016;2023-04-30T07:45:30;24.75;;;12.02;;
65717;SDS011;52445;52.466;-1.016;2023-04-30T07:47:56;25.67;;;10.77;;
65717;SDS011;52445;52.466;-1.016;2023-04-30T07:50:23;23.40;;;11.27;;
65717;SDS011;52445;52.466;-1.016;2023-04-30T07:52:50;23.70;;;10.95;;
65717;SDS011;52445;52.466;-1.016;2023-04-30T07:55:17;30.48;;;11.13;;
65717;SDS011;52445;52.466;-1.016;2023-04-30T07:57:43;23.10;;;9.75;;
65717;SDS011;52445;52.466;-1.016;2023-04-30T08:00:10;25.35;;;10.07;;
65717;SDS011;52445;52.466;-1.016;2023-04-30T08:02:37;21.33;;;10.18;;
65717;SDS011;52445;52.466;-1.016;2023-04-30T08:05:04;25.65;;;11.27;;
65717;SDS011;52445;52.466;-1.016;2023-04-30T08:07:31;24.85;;;11.68;;
65717;SDS011;52445;52.466;-1.016;2023-04-30T08:09:57;22.63;;;11.07;;
65717;SDS011;52445;52.466;-1.016;2023-04-30T08:12:24;22.80;;;10.23;;
65717;SDS011;52445;52.466;-1.016;2023-04-30T08:14:58;24.88;;;10.23;;
65717;SDS011;52445;52.466;-1.016;2023-04-30T08:17:25;25.63;;;11.77;;
65717;SDS011;52445;52.466;-1.016;2023-04-30T08:19:52;22.67;;;10.35;;
65717;SDS011;52445;52.466;-1.016;2023-04-30T08:22:19;25.05;;;11.23;;
65717;SDS011;52445;52.466;-1.016;2023-04-30T08:24:46;22.95;;;10.45;;
65717;SDS011;52445;52.466;-1.016;2023-04-30T08:27:12;24.15;;;11.10;;
65717;SDS011;52445;52.466;-1.016;2023-04-30T08:29:39;20.38;;;9.82;;
65717;SDS011;52445;52.466;-1.016;2023-04-30T08:32:06;26.42;;;12.70;;
65717;SDS011;52445;52.466;-1.016;2023-04-30T08:34:32;21.88;;;10.40;;
65717;SDS011;52445;52.466;-1.016;2023-04-30T08:36:59;24.48;;;12.50;;
65717;SDS011;52445;52.466;-1.016;2023-04-30T08:39:26;23.15;;;10.43;;
65717;SDS011;52445;52.466;-1.016;2023-04-30T08:41:54;25.13;;;11.95;;
65717;SDS011;52445;52.466;-1.016;2023-04-30T08:44:21;20.15;;;9.95;;
65717;SDS011;52445;52.466;-1.016;2023-04-30T08:46:51;26.27;;;12.25;;
65717;SDS011;52445;52.466;-1.016;2023-04-30T08:49:20;25.15;;;11.00;;
65717;SDS011;52445;52.466;-1.016;2023-04-30T08:51:50;18.17;;;9.43;;
65717;SDS011;52445;52.466;-1.016;2023-04-30T08:54:17;20.52;;;9.18;;
65717;SDS011;52445;52.466;-1.016;2023-04-30T08:56:44;19.33;;;10.10;;
65717;SDS011;52445;52.466;-1.016;2023-04-30T08:59:11;17.95;;;8.40;;
65717;SDS011;52445;52.466;-1.016;2023-04-30T09:01:39;21.88;;;10.55;;
65717;SDS011;52445;52.466;-1.016;2023-04-30T09:04:06;19.42;;;8.60;;
65717;SDS011;52445;52.466;-1.016;2023-04-30T09:06:33;21.88;;;10.77;;
65717;SDS011;52445;52.466;-1.016;2023-04-30T09:09:08;26.35;;;12.25;;
65717;SDS011;52445;52.466;-1.016;2023-04-30T09:11:37;23.45;;;10.63;;
65717;SDS011;52445;52.466;-1.016;2023-04-30T09:14:03;20.75;;;10.57;;
65717;SDS011;52445;52.466;-1.016;2023-04-30T09:16:44;21.40;;;9.93;;
65717;SDS011;52445;52.466;-1.016;2023-04-30T09:19:23;21.02;;;10.43;;
65717;SDS011;52445;52.466;-1.016;2023-04-30T09:22:15;20.52;;;9.80;;
65717;SDS011;52445;52.466;-1.016;2023-04-30T09:24:45;15.50;;;7.00;;
65717;SDS011;52445;52.466;-1.016;2023-04-30T09:27:15;19.92;;;8.65;;
65717;SDS011;52445;52.466;-1.016;2023-04-30T09:29:43;19.08;;;8.52;;
65717;SDS011;52445;52.466;-1.016;2023-04-30T09:32:11;17.45;;;7.50;;
65717;SDS011;52445;52.466;-1.016;2023-04-30T09:34:39;22.73;;;9.50;;
65717;SDS011;52445;52.466;-1.016;2023-04-30T09:37:06;18.10;;;8.80;;
65717;SDS011;52445;52.466;-1.016;2023-04-30T09:39:32;16.10;;;7.80;;
65717;SDS011;52445;52.466;-1.016;2023-04-30T09:42:07;18.23;;;8.40;;
65717;SDS011;52445;52.466;-1.016;2023-04-30T09:44:37;21.55;;;10.30;;
65717;SDS011;52445;52.466;-1.016;2023-04-30T09:47:10;13.63;;;6.88;;
65717;SDS011;52445;52.466;-1.016;2023-04-30T09:49:50;24.67;;;13.32;;
65717;SDS011;52445;52.466;-1.016;2023-04-30T09:52:18;21.13;;;11.25;;
65717;SDS011;52445;52.466;-1.016;2023-04-30T09:54:46;27.70;;;9.30;;
65717;SDS011;52445;52.466;-1.016;2023-04-30T09:57:14;21.52;;;12.63;;
65717;SDS011;52445;52.466;-1.016;2023-04-30T09:59:43;22.58;;;11.07;;
65717;SDS011;52445;52.466;-1.016;2023-04-30T10:02:12;21.60;;;9.20;;
65717;SDS011;52445;52.466;-1.016;2023-04-30T10:04:41;19.67;;;11.70;;
65717;SDS011;52445;52.466;-1.016;2023-04-30T10:07:11;17.52;;;8.35;;
65717;SDS011;52445;52.466;-1.016;2023-04-30T10:12:21;17.35;;;7.95;;
65717;SDS011;52445;52.466;-1.016;2023-04-30T10:14:52;18.38;;;9.25;;
65717;SDS011;52445;52.466;-1.016;2023-04-30T10:17:23;22.13;;;10.00;;
65717;SDS011;52445;52.466;-1.016;2023-04-30T10:19:54;16.55;;;6.93;;
65717;SDS011;52445;52.466;-1.016;2023-04-30T10:22:27;16.45;;;8.00;;
65717;SDS011;52445;52.466;-1.016;2023-04-30T10:24:55;17.77;;;7.63;;
65717;SDS011;52445;52.466;-1.016;2023-04-30T10:27:22;14.00;;;6.82;;
65717;SDS011;52445;52.466;-1.016;2023-04-30T10:29:48;16.95;;;8.18;;
65717;SDS011;52445;52.466;-1.016;2023-04-30T10:32:16;13.75;;;7.47;;
65717;SDS011;52445;52.466;-1.016;2023-04-30T10:37:23;17.63;;;7.80;;
65717;SDS011;52445;52.466;-1.016;2023-04-30T10:42:23;20.42;;;9.10;;
65717;SDS011;52445;52.466;-1.016;2023-04-30T10:44:50;20.00;;;8.88;;
65717;SDS011;52445;52.466;-1.016;2023-04-30T10:47:17;20.50;;;9.63;;
65717;SDS011;52445;52.466;-1.016;2023-04-30T10:49:45;24.40;;;12.63;;
65717;SDS011;52445;52.466;-1.016;2023-04-30T10:52:13;20.38;;;9.10;;
65717;SDS011;52445;52.466;-1.016;2023-04-30T10:54:51;20.77;;;9.75;;
65717;SDS011;52445;52.466;-1.016;2023-04-30T10:57:18;18.17;;;8.25;;
65717;SDS011;52445;52.466;-1.016;2023-04-30T11:02:27;19.85;;;9.55;;
65717;SDS011;52445;52.466;-1.016;2023-04-30T11:07:49;23.55;;;10.77;;
65717;SDS011;52445;52.466;-1.016;2023-04-30T11:10:21;20.05;;;10.32;;
65717;SDS011;52445;52.466;-1.016;2023-04-30T11:12:49;22.40;;;11.77;;
65717;SDS011;52445;52.466;-1.016;2023-04-30T11:15:17;19.70;;;10.00;;
65717;SDS011;52445;52.466;-1.016;2023-04-30T11:17:47;19.52;;;10.13;;
65717;SDS011;52445;52.466;-1.016;2023-04-30T11:20:18;13.60;;;6.75;;
65717;SDS011;52445;52.466;-1.016;2023-04-30T11:23:06;17.88;;;8.55;;
65717;SDS011;52445;52.466;-1.016;2023-04-30T11:25:39;13.20;;;8.40;;
65717;SDS011;52445;52.466;-1.016;2023-04-30T11:28:12;18.00;;;10.18;;
65717;SDS011;52445;52.466;-1.016;2023-04-30T11:30:57;22.35;;;11.40;;
65717;SDS011;52445;52.466;-1.016;2023-04-30T11:33:26;18.70;;;10.13;;
65717;SDS011;52445;52.466;-1.016;2023-04-30T11:35:54;17.70;;;8.50;;
65717;SDS011;52445;52.466;-1.016;2023-04-30T11:38:26;14.15;;;7.07;;
65717;SDS011;52445;52.466;-1.016;2023-04-30T11:40:55;16.65;;;10.18;;
65717;SDS011;52445;52.466;-1.016;2023-04-30T11:43:24;13.10;;;7.22;;
65717;SDS011;52445;52.466;-1.016;2023-04-30T11:48:43;24.83;;;12.18;;
65717;SDS011;52445;52.466;-1.016;2023-04-30T11:53:48;23.77;;;13.20;;
65717;SDS011;52445;52.466;-1.016;2023-04-30T11:56:18;16.88;;;9.35;;
65717;SDS011;52445;52.466;-1.016;2023-04-30T11:58:47;20.13;;;9.35;;
65717;SDS011;52445;52.466;-1.016;2023-04-30T12:01:14;18.00;;;9.65;;
65717;SDS011;52445;52.466;-1.016;2023-04-30T12:03:42;22.85;;;9.73;;
65717;SDS011;52445;52.466;-1.016;2023-04-30T12:06:10;19.73;;;9.80;;
65717;SDS011;52445;52.466;-1.016;2023-04-30T12:08:39;21.30;;;9.90;;
65717;SDS011;52445;52.466;-1.016;2023-04-30T12:11:17;18.38;;;8.55;;
65717;SDS011;52445;52.466;-1.016;2023-04-30T12:13:49;19.85;;;9.88;;
65717;SDS011;52445;52.466;-1.016;2023-04-30T12:16:17;20.52;;;10.05;;
65717;SDS011;52445;52.466;-1.016;2023-04-30T12:18:45;20.33;;;9.90;;
65717;SDS011;52445;52.466;-1.016;2023-04-30T12:21:12;20.48;;;9.27;;
65717;SDS011;52445;52.466;-1.016;2023-04-30T12:23:40;15.70;;;8.18;;
65717;SDS011;52445;52.466;-1.016;2023-04-30T12:26:07;14.90;;;7.88;;
65717;SDS011;52445;52.466;-1.016;2023-04-30T12:28:33;16.60;;;7.70;;
65717;SDS011;52445;52.466;-1.016;2023-04-30T12:31:00;16.90;;;8.70;;
65717;SDS011;52445;52.466;-1.016;2023-04-30T12:33:29;13.90;;;7.57;;
65717;SDS011;52445;52.466;-1.016;2023-04-30T12:35:56;9.77;;;5.45;;
65717;SDS011;52445;52.466;-1.016;2023-04-30T12:38:24;13.68;;;6.47;;
65717;SDS011;52445;52.466;-1.016;2023-04-30T12:40:51;13.43;;;6.55;;
65717;SDS011;52445;52.466;-1.016;2023-04-30T12:43:19;12.45;;;6.35;;
65717;SDS011;52445;52.466;-1.016;2023-04-30T12:45:48;13.32;;;7.05;;
65717;SDS011;52445;52.466;-1.016;2023-04-30T12:48:21;12.80;;;6.55;;
65717;SDS011;52445;52.466;-1.016;2023-04-30T12:50:51;14.40;;;6.88;;
65717;SDS011;52445;52.466;-1.016;2023-04-30T12:53:28;14.10;;;7.00;;
65717;SDS011;52445;52.466;-1.016;2023-04-30T12:56:06;10.48;;;4.32;;
65717;SDS011;52445;52.466;-1.016;2023-04-30T12:58:34;11.50;;;5.93;;
65717;SDS011;52445;52.466;-1.016;2023-04-30T13:01:04;14.10;;;5.97;;
65717;SDS011;52445;52.466;-1.016;2023-04-30T13:03:31;12.98;;;6.45;;
65717;SDS011;52445;52.466;-1.016;2023-04-30T13:05:58;16.52;;;7.03;;
65717;SDS011;52445;52.466;-1.016;2023-04-30T13:08:26;16.85;;;8.20;;
65717;SDS011;52445;52.466;-1.016;2023-04-30T13:10:53;12.50;;;6.38;;
65717;SDS011;52445;52.466;-1.016;2023-04-30T13:13:19;17.67;;;8.20;;
65717;SDS011;52445;52.466;-1.016;2023-04-30T13:15:46;17.05;;;8.45;;
65717;SDS011;52445;52.466;-1.016;2023-04-30T13:18:13;16.48;;;8.07;;
65717;SDS011;52445;52.466;-1.016;2023-04-30T13:20:41;19.15;;;9.07;;
65717;SDS011;52445;52.466;-1.016;2023-04-30T13:23:09;18.77;;;9.10;;
65717;SDS011;52445;52.466;-1.016;2023-04-30T13:25:38;18.40;;;9.65;;
65717;SDS011;52445;52.466;-1.016;2023-04-30T13:28:05;20.00;;;8.73;;
65717;SDS011;52445;52.466;-1.016;2023-04-30T13:30:32;21.02;;;8.90;;
65717;SDS011;52445;52.466;-1.016;2023-04-30T13:33:00;16.08;;;8.20;;
65717;SDS011;52445;52.466;-1.016;2023-04-30T13:35:27;14.20;;;6.28;;
65717;SDS011;52445;52.466;-1.016;2023-04-30T13:37:53;19.73;;;9.82;;
65717;SDS011;52445;52.466;-1.016;2023-04-30T13:40:20;23.00;;;9.52;;
65717;SDS011;52445;52.466;-1.016;2023-04-30T13:42:47;18.17;;;8.05;;
65717;SDS011;52445;52.466;-1.016;2023-04-30T13:45:14;17.02;;;8.63;;
65717;SDS011;52445;52.466;-1.016;2023-04-30T13:47:41;14.80;;;7.75;;
65717;SDS011;52445;52.466;-1.016;2023-04-30T13:50:08;19.75;;;9.80;;
65717;SDS011;52445;52.466;-1.016;2023-04-30T13:52:35;19.88;;;8.82;;
65717;SDS011;52445;52.466;-1.016;2023-04-30T13:55:03;20.50;;;9.93;;
65717;SDS011;52445;52.466;-1.016;2023-04-30T13:57:31;19.65;;;9.77;;
65717;SDS011;52445;52.466;-1.016;2023-04-30T13:59:58;14.88;;;7.50;;
65717;SDS011;52445;52.466;-1.016;2023-04-30T14:02:25;15.50;;;7.63;;
65717;SDS011;52445;52.466;-1.016;2023-04-30T14:04:53;19.15;;;7.78;;
65717;SDS011;52445;52.466;-1.016;2023-04-30T14:07:31;14.43;;;7.07;;
65717;SDS011;52445;52.466;-1.016;2023-04-30T14:09:58;18.08;;;7.72;;
65717;SDS011;52445;52.466;-1.016;2023-04-30T14:12:25;12.88;;;6.53;;
65717;SDS011;52445;52.466;-1.016;2023-04-30T14:14:51;15.15;;;7.50;;
65717;SDS011;52445;52.466;-1.016;2023-04-30T14:17:18;15.57;;;6.72;;
65717;SDS011;52445;52.466;-1.016;2023-04-30T14:19:45;17.02;;;8.05;;
65717;SDS011;52445;52.466;-1.016;2023-04-30T14:22:12;15.07;;;7.43;;
65717;SDS011;52445;52.466;-1.016;2023-04-30T14:24:39;14.57;;;7.05;;
65717;SDS011;52445;52.466;-1.016;2023-04-30T14:27:06;16.40;;;7.38;;
65717;SDS011;52445;52.466;-1.016;2023-04-30T14:29:32;12.60;;;6.15;;
65717;SDS011;52445;52.466;-1.016;2023-04-30T14:31:59;14.23;;;6.70;;
65717;SDS011;52445;52.466;-1.016;2023-04-30T14:34:27;13.98;;;7.10;;
65717;SDS011;52445;52.466;-1.016;2023-04-30T14:36:53;16.90;;;8.57;;
65717;SDS011;52445;52.466;-1.016;2023-04-30T14:39:20;15.48;;;7.38;;
65717;SDS011;52445;52.466;-1.016;2023-04-30T14:41:46;14.43;;;7.68;;
65717;SDS011;52445;52.466;-1.016;2023-04-30T14:44:13;15.15;;;7.25;;
65717;SDS011;52445;52.466;-1.016;2023-04-30T14:46:40;14.73;;;6.63;;
65717;SDS011;52445;52.466;-1.016;2023-04-30T14:49:06;19.80;;;8.73;;
65717;SDS011;52445;52.466;-1.016;2023-04-30T14:51:33;16.77;;;8.00;;
65717;SDS011;52445;52.466;-1.016;2023-04-30T14:54:00;14.75;;;7.28;;
65717;SDS011;52445;52.466;-1.016;2023-04-30T14:56:27;14.68;;;6.68;;
65717;SDS011;52445;52.466;-1.016;2023-04-30T14:58:54;16.13;;;7.75;;